Time,TemperatureF,DewpointF,PressureIn,WindDirection,WindDirectionDegrees,WindSpeedMPH,WindSpeedGustMPH,Humidity,HourlyPrecipIn,Conditions,Clouds,dailyrainin,SoftwareType,DateUTC
2013-06-20 00:01:00,64.0,44.4,29.39,NNE,22,0.0,0.0,49,0.00,CLR,OVC,0.00,WeatherDisplay:10.37,2013-06-20 04:01:00,
2013-06-20 00:06:00,64.0,43.4,29.39,NNE,22,0.0,0.0,47,0.00,CLR,OVC,0.00,WeatherDisplay:10.37,2013-06-20 04:06:00,
2013-06-20 00:11:00,64.0,45.0,29.39,NNE,22,0.0,0.0,50,0.00,CLR,OVC,0.00,WeatherDisplay:10.37,2013-06-20 04:11:00,
2013-06-20 00:16:00,64.0,42.2,29.39,NNE,22,0.0,0.0,45,0.00,CLR,OVC,0.00,WeatherDisplay:10.37,2013-06-20 04:16:00,
2013-06-20 00:21:00,64.0,43.4,29.39,NNE,22,0.0,0.0,47,0.00,CLR,OVC,0.00,WeatherDisplay:10.37,2013-06-20 04:21:00,
2013-06-20 00:26:00,64.0,42.8,29.39,NNE,22,0.0,0.0,46,0.00,CLR,OVC,0.00,WeatherDisplay:10.37,2013-06-20 04:26:00,
2013-06-20 00:31:00,64.0,43.4,29.40,NNE,22,0.0,0.0,47,0.00,CLR,OVC,0.00,WeatherDisplay:10.37,2013-06-20 04:31:00,
2013-06-20 00:36:00,64.0,42.2,29.40,NNE,22,0.0,0.0,45,0.00,CLR,OVC,0.00,WeatherDisplay:10.37,2013-06-20 04:36:00,
2013-06-20 00:41:00,64.0,44.4,29.40,NNE,22,0.0,0.0,49,0.00,CLR,OVC,0.00,WeatherDisplay:10.37,2013-06-20 04:41:00,
2013-06-20 00:46:00,63.0,41.3,29.40,NNE,22,0.0,0.0,45,0.00,CLR,OVC,0.00,WeatherDisplay:10.37,2013-06-20 04:46:00,
2013-06-20 00:51:00,64.0,43.9,29.40,NNE,22,0.0,0.0,48,0.00,CLR,OVC,0.00,WeatherDisplay:10.37,2013-06-20 04:51:00,
2013-06-20 00:56:00,63.0,42.4,29.40,NNE,22,0.0,0.0,47,0.00,CLR,OVC,0.00,WeatherDisplay:10.37,2013-06-20 04:56:00,
2013-06-20 01:01:00,63.0,43.5,29.41,NNE,22,0.0,0.0,49,0.00,CLR,OVC,0.00,WeatherDisplay:10.37,2013-06-20 05:01:00,
2013-06-20 01:06:00,63.0,40.7,29.41,NNE,22,0.0,0.0,44,0.00,CLR,OVC,0.00,WeatherDisplay:10.37,2013-06-20 05:06:00,
2013-06-20 01:11:00,64.0,42.2,29.40,NNE,22,0.0,0.0,45,0.00,CLR,OVC,0.00,WeatherDisplay:10.37,2013-06-20 05:11:00,
2013-06-20 01:16:00,63.0,40.7,29.40,NNE,22,0.0,0.0,44,0.00,CLR,OVC,0.00,WeatherDisplay:10.37,2013-06-20 05:16:00,
2013-06-20 01:21:00,63.0,43.0,29.41,NNE,22,0.0,0.0,48,0.00,CLR,OVC,0.00,WeatherDisplay:10.37,2013-06-20 05:21:00,
2013-06-20 01:26:00,63.0,41.3,29.41,NNE,22,0.0,0.0,45,0.00,CLR,OVC,0.00,WeatherDisplay:10.37,2013-06-20 05:26:00,
2013-06-20 01:31:00,63.0,42.4,29.41,NNE,22,0.0,0.0,47,0.00,CLR,OVC,0.00,WeatherDisplay:10.37,2013-06-20 05:31:00,
2013-06-20 01:36:00,63.0,40.1,29.41,NNE,22,0.0,0.0,43,0.00,CLR,OVC,0.00,WeatherDisplay:10.37,2013-06-20 05:36:00,
2013-06-20 01:41:00,63.0,41.3,29.41,NNE,22,0.0,0.0,45,0.00,CLR,OVC,0.00,WeatherDisplay:10.37,2013-06-20 05:41:00,
2013-06-20 01:46:00,63.0,41.3,29.41,NNE,22,0.0,0.0,45,0.00,CLR,OVC,0.00,WeatherDisplay:10.37,2013-06-20 05:46:00,
2013-06-20 01:51:00,63.0,41.9,29.41,NNE,22,0.0,0.0,46,0.00,CLR,OVC,0.00,WeatherDisplay:10.37,2013-06-20 05:51:00,
2013-06-20 01:56:00,63.0,40.7,29.41,NNE,22,0.0,0.0,44,0.00,CLR,OVC,0.00,WeatherDisplay:10.37,2013-06-20 05:56:00,
2013-06-20 02:01:00,63.0,41.3,29.41,NNE,22,0.0,0.0,45,0.00,CLR,OVC,0.00,WeatherDisplay:10.37,2013-06-20 06:01:00,
2013-06-20 02:06:00,62.0,39.8,29.41,NNE,22,0.0,0.0,44,0.00,CLR,OVC,0.00,WeatherDisplay:10.37,2013-06-20 06:06:00,
2013-06-20 02:11:00,63.0,40.7,29.40,NNE,22,0.0,0.0,44,0.00,CLR,OVC,0.00,WeatherDisplay:10.37,2013-06-20 06:11:00,
2013-06-20 02:16:00,63.0,40.1,29.40,NNE,22,0.0,0.0,43,0.00,CLR,OVC,0.00,WeatherDisplay:10.37,2013-06-20 06:16:00,
2013-06-20 02:21:00,63.0,41.3,29.40,NNE,22,0.0,0.0,45,0.00,CLR,OVC,0.00,WeatherDisplay:10.37,2013-06-20 06:21:00,
2013-06-20 02:26:00,62.0,40.4,29.40,NNE,22,0.0,0.0,45,0.00,CLR,OVC,0.00,WeatherDisplay:10.37,2013-06-20 06:26:00,
2013-06-20 02:31:00,62.0,42.1,29.40,NNE,22,0.0,0.0,48,0.00,CLR,OVC,0.00,WeatherDisplay:10.37,2013-06-20 06:31:00,
2013-06-20 02:36:00,62.0,39.8,29.40,NNE,22,0.0,0.0,44,0.00,CLR,OVC,0.00,WeatherDisplay:10.37,2013-06-20 06:36:00,
2013-06-20 02:41:00,62.0,39.8,29.40,NNE,22,0.0,0.0,44,0.00,CLR,OVC,0.00,WeatherDisplay:10.37,2013-06-20 06:41:00,
2013-06-20 02:47:00,62.0,39.8,29.40,NNE,22,0.0,0.0,44,0.00,CLR,OVC,0.00,WeatherDisplay:10.37,2013-06-20 06:47:00,
2013-06-20 02:52:00,62.0,40.4,29.40,NNE,22,0.0,0.0,45,0.00,CLR,OVC,0.00,WeatherDisplay:10.37,2013-06-20 06:52:00,
2013-06-20 02:57:00,62.0,39.8,29.40,NNE,22,0.0,0.0,44,0.00,CLR,OVC,0.00,WeatherDisplay:10.37,2013-06-20 06:57:00,
2013-06-20 03:02:00,62.0,40.4,29.41,NNE,22,0.0,0.0,45,0.00,CLR,OVC,0.00,WeatherDisplay:10.37,2013-06-20 07:02:00,
2013-06-20 03:07:00,62.0,39.8,29.41,NNE,22,0.0,0.0,44,0.00,CLR,OVC,0.00,WeatherDisplay:10.37,2013-06-20 07:07:00,
2013-06-20 03:12:00,63.0,41.3,29.41,NNE,22,0.0,0.0,45,0.00,CLR,OVC,0.00,WeatherDisplay:10.37,2013-06-20 07:12:00,
2013-06-20 03:17:00,62.0,39.8,29.41,NNE,22,0.0,0.0,44,0.00,CLR,OVC,0.00,WeatherDisplay:10.37,2013-06-20 07:17:00,
2013-06-20 03:22:00,63.0,41.3,29.41,NNE,22,0.0,0.0,45,0.00,CLR,OVC,0.00,WeatherDisplay:10.37,2013-06-20 07:22:00,
2013-06-20 03:27:00,63.0,41.3,29.41,NNE,22,0.0,0.0,45,0.00,CLR,OVC,0.00,WeatherDisplay:10.37,2013-06-20 07:27:00,
2013-06-20 03:32:00,63.0,41.3,29.42,NNE,22,0.0,0.0,45,0.00,CLR,OVC,0.00,WeatherDisplay:10.37,2013-06-20 07:32:00,
2013-06-20 03:37:00,63.0,40.7,29.42,NNE,22,0.0,0.0,44,0.00,CLR,OVC,0.00,WeatherDisplay:10.37,2013-06-20 07:37:00,
2013-06-20 03:42:00,63.0,41.3,29.42,NNE,22,0.0,0.0,45,0.00,CLR,OVC,0.00,WeatherDisplay:10.37,2013-06-20 07:42:00,
2013-06-20 03:47:00,63.0,40.7,29.42,NNE,22,0.0,0.0,44,0.00,CLR,OVC,0.00,WeatherDisplay:10.37,2013-06-20 07:47:00,
2013-06-20 03:52:00,64.0,41.6,29.41,NNE,22,0.0,0.0,44,0.00,CLR,OVC,0.00,WeatherDisplay:10.37,2013-06-20 07:52:00,
2013-06-20 03:57:00,63.0,40.1,29.41,NNE,22,0.0,0.0,43,0.00,CLR,OVC,0.00,WeatherDisplay:10.37,2013-06-20 07:57:00,
2013-06-20 04:02:00,64.0,41.6,29.41,NNE,22,0.0,0.0,44,0.00,CLR,OVC,0.00,WeatherDisplay:10.37,2013-06-20 08:02:00,
2013-06-20 04:07:00,63.0,40.1,29.41,NNE,22,0.0,0.0,43,0.00,CLR,OVC,0.00,WeatherDisplay:10.37,2013-06-20 08:07:00,
2013-06-20 04:12:00,64.0,41.6,29.42,NNE,22,0.0,0.0,44,0.00,CLR,OVC,0.00,WeatherDisplay:10.37,2013-06-20 08:12:00,
2013-06-20 04:17:00,63.0,39.5,29.42,NNE,22,0.0,0.0,42,0.00,CLR,OVC,0.00,WeatherDisplay:10.37,2013-06-20 08:17:00,
2013-06-20 04:22:00,64.0,41.0,29.42,NNE,22,0.0,0.0,43,0.00,CLR,OVC,0.00,WeatherDisplay:10.37,2013-06-20 08:22:00,
2013-06-20 04:27:00,63.0,39.5,29.42,SSE,157,2.3,2.3,42,0.00,CLR,OVC,0.00,WeatherDisplay:10.37,2013-06-20 08:27:00,
2013-06-20 04:32:00,63.0,40.1,29.43,SSE,157,0.0,0.0,43,0.00,CLR,OVC,0.00,WeatherDisplay:10.37,2013-06-20 08:32:00,
2013-06-20 04:37:00,63.0,39.5,29.43,SSE,157,0.0,0.0,42,0.00,CLR,OVC,0.00,WeatherDisplay:10.37,2013-06-20 08:37:00,
2013-06-20 04:42:00,63.0,40.1,29.43,NE,45,0.0,0.0,43,0.00,CLR,OVC,0.00,WeatherDisplay:10.37,2013-06-20 08:42:00,
2013-06-20 04:47:00,63.0,39.5,29.43,East,90,0.0,0.0,42,0.00,CLR,OVC,0.00,WeatherDisplay:10.37,2013-06-20 08:47:00,
2013-06-20 04:52:00,63.0,40.1,29.43,East,90,0.0,0.0,43,0.00,CLR,OVC,0.00,WeatherDisplay:10.37,2013-06-20 08:52:00,
2013-06-20 04:57:00,63.0,39.5,29.43,East,90,0.0,0.0,42,0.00,CLR,OVC,0.00,WeatherDisplay:10.37,2013-06-20 08:57:00,
2013-06-20 05:02:00,63.0,40.1,29.43,East,90,0.0,0.0,43,0.00,CLR,OVC,0.00,WeatherDisplay:10.37,2013-06-20 09:02:00,
2013-06-20 05:07:00,63.0,39.5,29.43,East,90,0.0,0.0,42,0.00,CLR,OVC,0.00,WeatherDisplay:10.37,2013-06-20 09:07:00,
2013-06-20 05:12:00,63.0,39.5,29.43,East,90,0.0,0.0,42,0.00,CLR,OVC,0.00,WeatherDisplay:10.37,2013-06-20 09:12:00,
2013-06-20 05:17:00,63.0,39.5,29.43,East,90,0.0,0.0,42,0.00,CLR,OVC,0.00,WeatherDisplay:10.37,2013-06-20 09:17:00,
2013-06-20 05:22:00,63.0,39.5,29.44,East,90,0.0,0.0,42,0.00,CLR,OVC,0.00,WeatherDisplay:10.37,2013-06-20 09:22:00,
2013-06-20 05:27:00,63.0,39.5,29.44,SE,135,2.3,2.3,42,0.00,CLR,OVC,0.00,WeatherDisplay:10.37,2013-06-20 09:27:00,
2013-06-20 05:32:00,63.0,39.5,29.44,SE,135,0.0,0.0,42,0.00,CLR,OVC,0.00,WeatherDisplay:10.37,2013-06-20 09:32:00,
2013-06-20 05:37:00,63.0,39.5,29.44,SE,135,0.0,0.0,42,0.00,CLR,OVC,0.00,WeatherDisplay:10.37,2013-06-20 09:37:00,
2013-06-20 05:42:00,63.0,39.5,29.45,SE,135,0.0,0.0,42,0.00,CLR,OVC,0.00,WeatherDisplay:10.37,2013-06-20 09:42:00,
2013-06-20 05:47:00,62.0,38.6,29.45,SE,135,0.0,0.0,42,0.00,CLR,OVC,0.00,WeatherDisplay:10.37,2013-06-20 09:47:00,
2013-06-20 05:52:00,62.0,38.6,29.45,SE,135,0.0,0.0,42,0.00,CLR,OVC,0.00,WeatherDisplay:10.37,2013-06-20 09:52:00,
2013-06-20 05:57:00,62.0,38.6,29.45,SE,135,0.0,0.0,42,0.00,CLR,OVC,0.00,WeatherDisplay:10.37,2013-06-20 09:57:00,
2013-06-20 06:02:00,62.0,38.6,29.45,SE,135,0.0,0.0,42,0.00,CLR,OVC,0.00,WeatherDisplay:10.37,2013-06-20 10:02:00,
2013-06-20 06:07:00,62.0,38.6,29.45,SE,135,0.0,0.0,42,0.00,CLR,OVC,0.00,WeatherDisplay:10.37,2013-06-20 10:07:00,
2013-06-20 06:12:00,61.0,38.3,29.45,SE,135,0.0,0.0,43,0.00,CLR,OVC,0.00,WeatherDisplay:10.37,2013-06-20 10:12:00,
2013-06-20 06:17:00,61.0,37.7,29.45,SE,135,0.0,0.0,42,0.00,CLR,OVC,0.00,WeatherDisplay:10.37,2013-06-20 10:17:00,
2013-06-20 06:22:00,61.0,37.7,29.46,SE,135,0.0,0.0,42,0.00,CLR,OVC,0.00,WeatherDisplay:10.37,2013-06-20 10:22:00,
2013-06-20 06:27:00,61.0,37.7,29.46,SE,135,0.0,0.0,42,0.00,CLR,OVC,0.00,WeatherDisplay:10.37,2013-06-20 10:27:00,
2013-06-20 06:32:00,61.0,38.3,29.47,SE,135,0.0,0.0,43,0.00,CLR,OVC,0.00,WeatherDisplay:10.37,2013-06-20 10:32:00,
2013-06-20 06:37:00,61.0,38.3,29.47,SE,135,0.0,0.0,43,0.00,CLR,OVC,0.00,WeatherDisplay:10.37,2013-06-20 10:37:00,
2013-06-20 06:42:00,61.0,38.9,29.47,SE,135,0.0,0.0,44,0.00,CLR,OVC,0.00,WeatherDisplay:10.37,2013-06-20 10:42:00,
2013-06-20 06:47:00,61.0,38.9,29.47,SE,135,0.0,0.0,44,0.00,CLR,OVC,0.00,WeatherDisplay:10.37,2013-06-20 10:47:00,
2013-06-20 06:52:00,62.0,39.2,29.46,SE,135,0.0,0.0,43,0.00,CLR,OVC,0.00,WeatherDisplay:10.37,2013-06-20 10:52:00,
2013-06-20 06:57:00,62.0,39.2,29.46,SE,135,0.0,0.0,43,0.00,CLR,OVC,0.00,WeatherDisplay:10.37,2013-06-20 10:57:00,
2013-06-20 07:02:00,62.0,39.2,29.47,SE,135,0.0,0.0,43,0.00,CLR,OVC,0.00,WeatherDisplay:10.37,2013-06-20 11:02:00,
2013-06-20 07:07:00,62.0,39.2,29.47,SE,135,0.0,0.0,43,0.00,CLR,OVC,0.00,WeatherDisplay:10.37,2013-06-20 11:07:00,
2013-06-20 07:12:00,62.0,39.2,29.47,SE,135,0.0,0.0,43,0.00,CLR,OVC,0.00,WeatherDisplay:10.37,2013-06-20 11:12:00,
2013-06-20 07:17:00,62.0,39.2,29.47,SE,135,0.0,0.0,43,0.00,CLR,OVC,0.00,WeatherDisplay:10.37,2013-06-20 11:17:00,
2013-06-20 07:22:00,62.0,38.6,29.47,SE,135,0.0,0.0,42,0.00,CLR,OVC,0.00,WeatherDisplay:10.37,2013-06-20 11:22:00,
2013-06-20 07:27:00,63.0,39.5,29.47,SE,135,0.0,0.0,42,0.00,CLR,OVC,0.00,WeatherDisplay:10.37,2013-06-20 11:27:00,
2013-06-20 07:32:00,63.0,39.5,29.47,SE,135,0.0,0.0,42,0.00,CLR,OVC,0.00,WeatherDisplay:10.37,2013-06-20 11:32:00,
2013-06-20 07:37:00,63.0,38.9,29.47,SE,135,0.0,0.0,41,0.00,CLR,OVC,0.00,WeatherDisplay:10.37,2013-06-20 11:37:00,
2013-06-20 07:42:00,63.0,38.9,29.48,SE,135,0.0,0.0,41,0.00,CLR,OVC,0.00,WeatherDisplay:10.37,2013-06-20 11:42:00,
2013-06-20 07:47:00,63.0,38.3,29.48,SE,135,0.0,0.0,40,0.00,CLR,OVC,0.00,WeatherDisplay:10.37,2013-06-20 11:47:00,
2013-06-20 07:52:00,63.0,40.1,29.49,NNE,22,0.0,0.2,43,0.00,CLR,OVC,0.00,WeatherDisplay:10.37,2013-06-20 11:52:00,
2013-06-20 07:57:00,64.0,39.2,29.49,ESE,112,0.0,0.0,40,0.00,CLR,OVC,0.00,WeatherDisplay:10.37,2013-06-20 11:57:00,
2013-06-20 08:03:00,64.0,42.2,29.49,ESE,112,0.0,0.0,45,0.00,CLR,OVC,0.00,WeatherDisplay:10.37,2013-06-20 12:03:00,
2013-06-20 08:08:00,64.0,44.4,29.49,SE,135,3.5,3.5,49,0.00,CLR,OVC,0.00,WeatherDisplay:10.37,2013-06-20 12:08:00,
2013-06-20 08:13:00,65.0,55.0,29.50,SE,135,0.0,0.0,70,0.00,CLR,OVC,0.00,WeatherDisplay:10.37,2013-06-20 12:13:00,
2013-06-20 08:18:00,66.0,62.3,29.50,SE,135,0.0,0.0,88,0.00,CLR,OVC,0.00,WeatherDisplay:10.37,2013-06-20 12:18:00,
2013-06-20 08:23:00,67.0,65.2,29.50,SE,135,0.0,0.0,94,0.00,CLR,OVC,0.00,WeatherDisplay:10.37,2013-06-20 12:23:00,
2013-06-20 08:28:00,68.0,66.8,29.50,SE,135,0.0,0.0,96,0.00,CLR,OVC,0.00,WeatherDisplay:10.37,2013-06-20 12:28:00,
2013-06-20 08:33:00,69.0,68.7,29.50,SE,135,0.0,0.0,99,0.00,CLR,OVC,0.00,WeatherDisplay:10.37,2013-06-20 12:33:00,
2013-06-20 08:38:00,69.0,66.3,29.50,SE,135,0.0,0.0,91,0.00,CLR,OVC,0.00,WeatherDisplay:10.37,2013-06-20 12:38:00,
2013-06-20 08:43:00,70.0,66.6,29.51,SE,135,0.0,0.0,89,0.00,CLR,OVC,0.00,WeatherDisplay:10.37,2013-06-20 12:43:00,
2013-06-20 08:48:00,72.0,66.2,29.51,SE,135,0.0,0.0,82,0.00,CLR,OVC,0.00,WeatherDisplay:10.37,2013-06-20 12:48:00,
2013-06-20 08:53:00,72.0,62.9,29.51,SE,135,0.0,0.0,73,0.00,CLR,OVC,0.00,WeatherDisplay:10.37,2013-06-20 12:53:00,
2013-06-20 08:58:00,72.0,63.6,29.51,SE,135,0.0,0.0,75,0.00,CLR,OVC,0.00,WeatherDisplay:10.37,2013-06-20 12:58:00,
2013-06-20 09:03:00,72.0,61.7,29.51,SE,135,0.0,0.0,70,0.00,CLR,OVC,0.00,WeatherDisplay:10.37,2013-06-20 13:03:00,
2013-06-20 09:08:00,73.0,61.8,29.51,SE,135,0.0,0.0,68,0.00,CLR,OVC,0.00,WeatherDisplay:10.37,2013-06-20 13:08:00,
2013-06-20 09:13:00,74.0,62.8,29.51,SE,135,0.0,0.0,68,0.00,CLR,OVC,0.00,WeatherDisplay:10.37,2013-06-20 13:13:00,
2013-06-20 09:18:00,74.0,61.5,29.51,SE,135,1.2,0.0,65,0.00,CLR,OVC,0.00,WeatherDisplay:10.37,2013-06-20 13:18:00,
2013-06-20 09:23:00,75.0,61.5,29.51,SE,135,0.0,0.0,63,0.00,CLR,OVC,0.00,WeatherDisplay:10.37,2013-06-20 13:23:00,
2013-06-20 09:28:00,75.0,62.4,29.51,SE,135,0.0,0.0,65,0.00,CLR,OVC,0.00,WeatherDisplay:10.37,2013-06-20 13:28:00,
2013-06-20 09:33:00,75.0,61.5,29.51,SE,135,0.0,0.0,63,0.00,CLR,OVC,0.00,WeatherDisplay:10.37,2013-06-20 13:33:00,
2013-06-20 09:38:00,76.0,61.1,29.51,SE,135,0.0,0.0,60,0.00,CLR,OVC,0.00,WeatherDisplay:10.37,2013-06-20 13:38:00,
2013-06-20 09:43:00,76.0,59.7,29.51,ESE,112,0.0,0.0,57,0.00,CLR,OVC,0.00,WeatherDisplay:10.37,2013-06-20 13:43:00,
2013-06-20 09:48:00,75.0,58.7,29.51,ESE,112,0.0,0.0,57,0.00,CLR,OVC,0.00,WeatherDisplay:10.37,2013-06-20 13:48:00,
2013-06-20 09:53:00,75.0,58.2,29.51,ENE,67,0.0,0.0,56,0.00,CLR,OVC,0.00,WeatherDisplay:10.37,2013-06-20 13:53:00,
2013-06-20 09:58:00,76.0,59.2,29.51,ENE,67,2.3,2.3,56,0.00,CLR,OVC,0.00,WeatherDisplay:10.37,2013-06-20 13:58:00,
2013-06-20 10:03:00,75.0,58.2,29.50,SE,135,0.0,0.0,56,0.00,CLR,OVC,0.00,WeatherDisplay:10.37,2013-06-20 14:03:00,
2013-06-20 10:08:00,76.0,59.7,29.50,NE,45,0.0,0.0,57,0.00,CLR,OVC,0.00,WeatherDisplay:10.37,2013-06-20 14:08:00,
2013-06-20 10:13:00,77.0,60.1,29.50,SE,135,3.5,3.5,56,0.00,CLR,OVC,0.00,WeatherDisplay:10.37,2013-06-20 14:13:00,
2013-06-20 10:18:00,77.0,59.6,29.50,SSE,157,0.0,0.6,55,0.00,CLR,OVC,0.00,WeatherDisplay:10.37,2013-06-20 14:18:00,
2013-06-20 10:23:00,77.0,60.1,29.50,SE,135,3.5,3.5,56,0.00,CLR,OVC,0.00,WeatherDisplay:10.37,2013-06-20 14:23:00,
2013-06-20 10:28:00,77.0,59.6,29.50,ESE,112,0.0,0.0,55,0.00,CLR,OVC,0.00,WeatherDisplay:10.37,2013-06-20 14:28:00,
2013-06-20 10:33:00,77.0,61.1,29.50,SSE,157,3.5,3.5,58,0.00,CLR,OVC,0.00,WeatherDisplay:10.37,2013-06-20 14:33:00,
2013-06-20 10:38:00,77.0,60.1,29.50,NNE,22,1.2,1.2,56,0.00,CLR,OVC,0.00,WeatherDisplay:10.37,2013-06-20 14:38:00,
2013-06-20 10:43:00,77.0,58.0,29.50,ESE,112,0.0,0.0,52,0.00,CLR,OVC,0.00,WeatherDisplay:10.37,2013-06-20 14:43:00,
2013-06-20 10:48:00,77.0,58.6,29.50,NNE,22,2.3,0.0,53,0.00,CLR,OVC,0.00,WeatherDisplay:10.37,2013-06-20 14:48:00,
2013-06-20 10:53:00,78.0,57.9,29.50,NE,45,0.0,0.0,50,0.00,CLR,OVC,0.00,WeatherDisplay:10.37,2013-06-20 14:53:00,
2013-06-20 10:58:00,79.0,59.3,29.50,ENE,67,1.2,0.0,51,0.00,CLR,OVC,0.00,WeatherDisplay:10.37,2013-06-20 14:58:00,
2013-06-20 11:03:00,79.0,59.3,29.49,SE,135,0.0,0.0,51,0.00,CLR,OVC,0.00,WeatherDisplay:10.37,2013-06-20 15:03:00,
2013-06-20 11:08:00,78.0,58.9,29.49,SE,135,0.0,0.0,52,0.00,CLR,OVC,0.00,WeatherDisplay:10.37,2013-06-20 15:08:00,
2013-06-20 11:13:00,79.0,60.4,29.49,NE,45,0.0,0.0,53,0.00,CLR,OVC,0.00,WeatherDisplay:10.37,2013-06-20 15:13:00,
2013-06-20 11:18:00,80.0,60.8,29.49,NE,45,0.0,0.0,52,0.00,CLR,OVC,0.00,WeatherDisplay:10.37,2013-06-20 15:18:00,
2013-06-20 11:23:00,80.0,59.1,29.49,SSW,202,0.0,0.0,49,0.00,CLR,OVC,0.00,WeatherDisplay:10.37,2013-06-20 15:23:00,
2013-06-20 11:28:00,81.0,61.7,29.49,SE,135,0.0,0.0,52,0.00,CLR,OVC,0.00,WeatherDisplay:10.37,2013-06-20 15:28:00,
2013-06-20 11:33:00,80.0,60.2,29.48,East,90,0.0,0.0,51,0.00,CLR,OVC,0.00,WeatherDisplay:10.37,2013-06-20 15:33:00,
2013-06-20 11:38:00,79.0,59.3,29.48,SE,135,0.0,0.0,51,0.00,CLR,OVC,0.00,WeatherDisplay:10.37,2013-06-20 15:38:00,
2013-06-20 11:43:00,78.0,58.9,29.49,NNE,22,0.0,0.0,52,0.00,CLR,OVC,0.00,WeatherDisplay:10.37,2013-06-20 15:43:00,
2013-06-20 11:48:00,80.0,60.8,29.49,NNE,22,0.0,0.0,52,0.00,CLR,OVC,0.00,WeatherDisplay:10.37,2013-06-20 15:48:00,
2013-06-20 11:53:00,81.0,60.6,29.48,SE,135,0.0,0.0,50,0.00,CLR,OVC,0.00,WeatherDisplay:10.37,2013-06-20 15:53:00,
2013-06-20 11:59:00,81.0,61.2,29.48,NE,45,0.0,0.0,51,0.00,CLR,OVC,0.00,WeatherDisplay:10.37,2013-06-20 15:59:00,
2013-06-20 12:04:00,82.0,61.0,29.48,ENE,67,0.0,0.0,49,0.00,CLR,OVC,0.00,WeatherDisplay:10.37,2013-06-20 16:04:00,
2013-06-20 12:09:00,82.0,61.0,29.48,NNW,337,0.0,0.0,49,0.00,CLR,OVC,0.00,WeatherDisplay:10.37,2013-06-20 16:09:00,
2013-06-20 12:14:00,82.0,59.8,29.48,NNE,22,0.0,0.0,47,0.00,CLR,OVC,0.00,WeatherDisplay:10.37,2013-06-20 16:14:00,
2013-06-20 12:19:00,83.0,62.4,29.48,East,90,0.0,0.0,50,0.00,CLR,OVC,0.00,WeatherDisplay:10.37,2013-06-20 16:19:00,
2013-06-20 12:24:00,83.0,61.9,29.48,NE,45,0.0,0.0,49,0.00,CLR,OVC,0.00,WeatherDisplay:10.37,2013-06-20 16:24:00,
2013-06-20 12:29:00,82.0,61.5,29.48,ESE,112,0.0,0.0,50,0.00,CLR,OVC,0.00,WeatherDisplay:10.37,2013-06-20 16:29:00,
2013-06-20 12:34:00,81.0,60.6,29.48,ESE,112,0.0,0.0,50,0.00,CLR,OVC,0.00,WeatherDisplay:10.37,2013-06-20 16:34:00,
2013-06-20 12:39:00,81.0,61.2,29.48,ESE,112,0.0,0.0,51,0.00,CLR,OVC,0.00,WeatherDisplay:10.37,2013-06-20 16:39:00,
2013-06-20 12:44:00,81.0,61.2,29.48,ESE,112,0.0,0.0,51,0.00,CLR,OVC,0.00,WeatherDisplay:10.37,2013-06-20 16:44:00,
2013-06-20 12:49:00,80.0,59.1,29.48,East,90,0.0,0.0,49,0.00,CLR,OVC,0.00,WeatherDisplay:10.37,2013-06-20 16:49:00,
2013-06-20 12:54:00,81.0,60.6,29.48,West,270,0.0,0.0,50,0.00,CLR,OVC,0.00,WeatherDisplay:10.37,2013-06-20 16:54:00,
2013-06-20 12:59:00,81.0,61.2,29.48,NW,315,0.0,0.0,51,0.00,CLR,OVC,0.00,WeatherDisplay:10.37,2013-06-20 16:59:00,
2013-06-20 13:04:00,80.0,60.8,29.48,ENE,67,0.0,0.0,52,0.00,CLR,OVC,0.00,WeatherDisplay:10.37,2013-06-20 17:04:00,
2013-06-20 13:09:00,81.0,61.7,29.48,South,180,0.0,0.0,52,0.00,CLR,OVC,0.00,WeatherDisplay:10.37,2013-06-20 17:09:00,
2013-06-20 13:14:00,81.0,62.8,29.48,SE,135,0.0,0.0,54,0.00,CLR,OVC,0.00,WeatherDisplay:10.37,2013-06-20 17:14:00,
2013-06-20 13:19:00,82.0,61.0,29.48,SE,135,0.0,0.0,49,0.00,CLR,OVC,0.00,WeatherDisplay:10.37,2013-06-20 17:19:00,
2013-06-20 13:24:00,82.0,62.1,29.47,NE,45,0.0,0.0,51,0.00,CLR,OVC,0.00,WeatherDisplay:10.37,2013-06-20 17:24:00,
2013-06-20 13:29:00,83.0,61.9,29.47,North,360,0.0,0.0,49,0.00,CLR,OVC,0.00,WeatherDisplay:10.37,2013-06-20 17:29:00,
2013-06-20 13:34:00,83.0,61.9,29.47,East,90,0.0,0.0,49,0.00,CLR,OVC,0.00,WeatherDisplay:10.37,2013-06-20 17:34:00,
2013-06-20 13:39:00,82.0,61.0,29.47,SE,135,0.0,0.0,49,0.00,CLR,OVC,0.00,WeatherDisplay:10.37,2013-06-20 17:39:00,
2013-06-20 13:44:00,82.0,62.1,29.48,SE,135,0.0,0.0,51,0.00,CLR,OVC,0.00,WeatherDisplay:10.37,2013-06-20 17:44:00,
2013-06-20 13:49:00,81.0,60.6,29.48,East,90,0.0,0.0,50,0.00,CLR,OVC,0.00,WeatherDisplay:10.37,2013-06-20 17:49:00,
2013-06-20 13:54:00,81.0,61.2,29.48,NE,45,0.0,0.0,51,0.00,CLR,OVC,0.00,WeatherDisplay:10.37,2013-06-20 17:54:00,
2013-06-20 13:59:00,82.0,62.6,29.48,East,90,0.0,0.0,52,0.00,CLR,OVC,0.00,WeatherDisplay:10.37,2013-06-20 17:59:00,
2013-06-20 14:04:00,83.0,61.9,29.48,ESE,112,0.0,0.0,49,0.00,CLR,OVC,0.00,WeatherDisplay:10.37,2013-06-20 18:04:00,
2013-06-20 14:09:00,84.0,61.0,29.48,SE,135,0.0,0.0,46,0.00,CLR,OVC,0.00,WeatherDisplay:10.37,2013-06-20 18:09:00,
2013-06-20 14:14:00,82.0,62.1,29.48,SE,135,0.0,0.0,51,0.00,CLR,OVC,0.00,WeatherDisplay:10.37,2013-06-20 18:14:00,
2013-06-20 14:19:00,82.0,60.4,29.48,NE,45,0.0,0.0,48,0.00,CLR,OVC,0.00,WeatherDisplay:10.37,2013-06-20 18:19:00,
2013-06-20 14:24:00,83.0,60.1,29.48,NE,45,0.0,0.0,46,0.00,CLR,OVC,0.00,WeatherDisplay:10.37,2013-06-20 18:24:00,
2013-06-20 14:29:00,84.0,63.4,29.48,South,180,0.0,0.0,50,0.00,CLR,OVC,0.00,WeatherDisplay:10.37,2013-06-20 18:29:00,
2013-06-20 14:34:00,84.0,62.2,29.47,SE,135,0.0,0.0,48,0.00,CLR,OVC,0.00,WeatherDisplay:10.37,2013-06-20 18:34:00,
2013-06-20 14:39:00,85.0,63.1,29.47,SE,135,0.0,0.0,48,0.00,CLR,OVC,0.00,WeatherDisplay:10.37,2013-06-20 18:39:00,
2013-06-20 14:44:00,84.0,62.2,29.47,South,180,0.0,0.0,48,0.00,CLR,OVC,0.00,WeatherDisplay:10.37,2013-06-20 18:44:00,
2013-06-20 14:49:00,85.0,62.5,29.47,NNW,337,0.0,0.0,47,0.00,CLR,OVC,0.00,WeatherDisplay:10.37,2013-06-20 18:49:00,
2013-06-20 14:54:00,86.0,61.5,29.46,South,180,0.0,0.0,44,0.00,CLR,OVC,0.00,WeatherDisplay:10.37,2013-06-20 18:54:00,
2013-06-20 14:59:00,86.0,60.9,29.46,South,180,0.0,0.0,43,0.00,CLR,OVC,0.00,WeatherDisplay:10.37,2013-06-20 18:59:00,
2013-06-20 15:04:00,86.0,62.2,29.46,SSW,202,0.0,0.0,45,0.00,CLR,OVC,0.00,WeatherDisplay:10.37,2013-06-20 19:04:00,
2013-06-20 15:09:00,87.0,63.1,29.46,South,180,0.0,0.0,45,0.00,CLR,OVC,0.00,WeatherDisplay:10.37,2013-06-20 19:09:00,
2013-06-20 15:15:00,86.0,61.5,29.45,SE,135,0.0,0.0,44,0.00,CLR,OVC,0.00,WeatherDisplay:10.37,2013-06-20 19:15:00,
2013-06-20 15:20:00,84.0,62.8,29.45,SE,135,0.0,0.0,49,0.00,CLR,OVC,0.00,WeatherDisplay:10.37,2013-06-20 19:20:00,
2013-06-20 15:25:00,84.0,61.6,29.46,SE,135,0.0,0.0,47,0.00,CLR,OVC,0.00,WeatherDisplay:10.37,2013-06-20 19:25:00,
2013-06-20 15:30:00,84.0,62.8,29.46,SE,135,0.0,0.0,49,0.00,CLR,OVC,0.00,WeatherDisplay:10.37,2013-06-20 19:30:00,
2013-06-20 15:35:00,84.0,61.6,29.46,NNE,22,0.0,0.0,47,0.00,CLR,OVC,0.00,WeatherDisplay:10.37,2013-06-20 19:35:00,
2013-06-20 15:40:00,85.0,61.9,29.46,NNE,22,0.0,0.0,46,0.00,CLR,OVC,0.00,WeatherDisplay:10.37,2013-06-20 19:40:00,
2013-06-20 15:45:00,86.0,62.2,29.45,ESE,112,0.0,0.0,45,0.00,CLR,OVC,0.00,WeatherDisplay:10.37,2013-06-20 19:45:00,
2013-06-20 15:50:00,85.0,62.5,29.45,SE,135,0.0,0.0,47,0.00,CLR,OVC,0.00,WeatherDisplay:10.37,2013-06-20 19:50:00,
2013-06-20 15:55:00,84.0,61.6,29.45,SE,135,0.0,0.0,47,0.00,CLR,OVC,0.00,WeatherDisplay:10.37,2013-06-20 19:55:00,
2013-06-20 16:00:00,83.0,64.1,29.45,NNE,22,0.0,0.0,53,0.00,CLR,OVC,0.00,WeatherDisplay:10.37,2013-06-20 20:00:00,
2013-06-20 16:05:00,83.0,62.4,29.45,NNE,22,0.0,0.0,50,0.00,CLR,OVC,0.00,WeatherDisplay:10.37,2013-06-20 20:05:00,
2013-06-20 16:10:00,83.0,63.0,29.45,NNE,22,0.0,0.0,51,0.00,CLR,OVC,0.00,WeatherDisplay:10.37,2013-06-20 20:10:00,
2013-06-20 16:15:00,83.0,63.0,29.45,East,90,0.0,0.0,51,0.00,CLR,OVC,0.00,WeatherDisplay:10.37,2013-06-20 20:15:00,
2013-06-20 16:20:00,83.0,63.6,29.45,East,90,0.0,0.0,52,0.00,CLR,OVC,0.00,WeatherDisplay:10.37,2013-06-20 20:20:00,
2013-06-20 16:25:00,83.0,63.6,29.45,East,90,0.0,0.0,52,0.00,CLR,OVC,0.00,WeatherDisplay:10.37,2013-06-20 20:25:00,
2013-06-20 16:30:00,84.0,63.9,29.45,East,90,0.0,0.0,51,0.00,CLR,OVC,0.00,WeatherDisplay:10.37,2013-06-20 20:30:00,
2013-06-20 16:35:00,84.0,62.8,29.44,East,90,0.0,0.0,49,0.00,CLR,OVC,0.00,WeatherDisplay:10.37,2013-06-20 20:35:00,
2013-06-20 16:40:00,83.0,61.9,29.44,East,90,0.0,0.0,49,0.00,CLR,OVC,0.00,WeatherDisplay:10.37,2013-06-20 20:40:00,
2013-06-20 16:45:00,83.0,63.6,29.45,East,90,0.0,0.0,52,0.00,CLR,OVC,0.00,WeatherDisplay:10.37,2013-06-20 20:45:00,
2013-06-20 16:50:00,82.0,62.1,29.45,East,90,0.0,0.0,51,0.00,CLR,OVC,0.00,WeatherDisplay:10.37,2013-06-20 20:50:00,
2013-06-20 16:55:00,82.0,62.6,29.45,South,180,0.0,0.0,52,0.00,CLR,OVC,0.00,WeatherDisplay:10.37,2013-06-20 20:55:00,
2013-06-20 17:00:00,83.0,63.0,29.45,NE,45,2.0,0.0,51,0.00,CLR,OVC,0.00,WeatherDisplay:10.37,2013-06-20 21:00:00,
2013-06-20 17:06:00,83.0,63.6,29.45,NE,45,0.0,0.0,52,0.00,CLR,OVC,0.00,WeatherDisplay:10.37,2013-06-20 21:06:00,
2013-06-20 17:11:00,83.0,63.6,29.45,NE,45,0.0,0.0,52,0.00,CLR,OVC,0.00,WeatherDisplay:10.37,2013-06-20 21:11:00,
2013-06-20 17:16:00,82.0,62.6,29.45,NE,45,0.0,0.0,52,0.00,CLR,OVC,0.00,WeatherDisplay:10.37,2013-06-20 21:16:00,
2013-06-20 17:21:00,82.0,63.2,29.45,NE,45,0.0,0.0,53,0.00,CLR,OVC,0.00,WeatherDisplay:10.37,2013-06-20 21:21:00,
2013-06-20 17:26:00,81.0,63.8,29.45,ENE,67,0.0,0.0,56,0.00,CLR,OVC,0.00,WeatherDisplay:10.37,2013-06-20 21:26:00,
2013-06-20 17:31:00,81.0,62.3,29.44,ENE,67,0.0,0.0,53,0.00,CLR,OVC,0.00,WeatherDisplay:10.37,2013-06-20 21:31:00,
2013-06-20 17:36:00,81.0,63.8,29.44,South,180,0.0,0.0,56,0.00,CLR,OVC,0.00,WeatherDisplay:10.37,2013-06-20 21:36:00,
2013-06-20 17:41:00,81.0,63.8,29.43,NNE,22,0.0,0.0,56,0.00,CLR,OVC,0.00,WeatherDisplay:10.37,2013-06-20 21:41:00,
2013-06-20 17:46:00,81.0,63.8,29.43,NNE,22,0.0,0.0,56,0.00,CLR,OVC,0.00,WeatherDisplay:10.37,2013-06-20 21:46:00,
2013-06-20 17:51:00,80.0,62.9,29.44,East,90,0.0,0.0,56,0.00,CLR,OVC,0.00,WeatherDisplay:10.37,2013-06-20 21:51:00,
2013-06-20 17:56:00,80.0,63.4,29.44,East,90,0.0,0.0,57,0.00,CLR,OVC,0.00,WeatherDisplay:10.37,2013-06-20 21:56:00,
2013-06-20 18:01:00,80.0,63.4,29.44,ENE,67,0.0,0.0,57,0.00,CLR,OVC,0.00,WeatherDisplay:10.37,2013-06-20 22:01:00,
2013-06-20 18:06:00,80.0,63.4,29.44,ENE,67,0.0,0.0,57,0.00,CLR,OVC,0.00,WeatherDisplay:10.37,2013-06-20 22:06:00,
2013-06-20 18:11:00,80.0,63.9,29.43,ENE,67,0.0,0.0,58,0.00,CLR,OVC,0.00,WeatherDisplay:10.37,2013-06-20 22:11:00,
2013-06-20 18:16:00,79.0,63.9,29.43,ENE,67,0.0,0.0,60,0.00,CLR,OVC,0.00,WeatherDisplay:10.37,2013-06-20 22:16:00,
2013-06-20 18:21:00,78.0,62.5,29.44,ENE,67,0.0,0.0,59,0.00,CLR,OVC,0.00,WeatherDisplay:10.37,2013-06-20 22:21:00,
2013-06-20 18:26:00,78.0,63.0,29.44,NE,45,0.0,0.0,60,0.00,CLR,OVC,0.00,WeatherDisplay:10.37,2013-06-20 22:26:00,
2013-06-20 18:31:00,78.0,63.5,29.44,NE,45,0.0,0.0,61,0.00,CLR,OVC,0.00,WeatherDisplay:10.37,2013-06-20 22:31:00,
2013-06-20 18:36:00,77.0,63.0,29.43,NE,45,0.0,0.0,62,0.00,CLR,OVC,0.00,WeatherDisplay:10.37,2013-06-20 22:36:00,
2013-06-20 18:41:00,77.0,63.0,29.43,NE,45,0.0,0.0,62,0.00,CLR,OVC,0.00,WeatherDisplay:10.37,2013-06-20 22:41:00,
2013-06-20 18:46:00,76.0,63.8,29.43,NE,45,0.0,0.0,66,0.00,CLR,OVC,0.00,WeatherDisplay:10.37,2013-06-20 22:46:00,
2013-06-20 18:51:00,76.0,62.9,29.44,NE,45,0.0,0.0,64,0.00,CLR,OVC,0.00,WeatherDisplay:10.37,2013-06-20 22:51:00,
2013-06-20 18:57:00,76.0,63.4,29.44,NE,45,0.0,0.0,65,0.00,CLR,OVC,0.00,WeatherDisplay:10.37,2013-06-20 22:57:00,
2013-06-20 19:02:00,75.0,62.0,29.45,NE,45,0.0,0.0,64,0.00,CLR,OVC,0.00,WeatherDisplay:10.37,2013-06-20 23:02:00,
2013-06-20 19:07:00,75.0,62.9,29.45,NE,45,0.0,0.0,66,0.00,CLR,OVC,0.00,WeatherDisplay:10.37,2013-06-20 23:07:00,
2013-06-20 19:12:00,75.0,64.1,29.45,NE,45,0.0,0.0,69,0.00,CLR,OVC,0.00,WeatherDisplay:10.37,2013-06-20 23:12:00,
2013-06-20 19:17:00,75.0,64.1,29.45,ENE,67,0.0,0.0,69,0.00,CLR,OVC,0.00,WeatherDisplay:10.37,2013-06-20 23:17:00,
2013-06-20 19:22:00,75.0,64.1,29.45,ENE,67,0.0,0.0,69,0.00,CLR,OVC,0.00,WeatherDisplay:10.37,2013-06-20 23:22:00,
2013-06-20 19:27:00,74.0,63.6,29.45,ENE,67,0.0,0.0,70,0.00,CLR,OVC,0.00,WeatherDisplay:10.37,2013-06-20 23:27:00,
2013-06-20 19:32:00,74.0,64.0,29.45,ENE,67,0.0,0.0,71,0.00,CLR,OVC,0.00,WeatherDisplay:10.37,2013-06-20 23:32:00,
2013-06-20 19:37:00,74.0,64.8,29.45,ENE,67,0.0,0.0,73,0.00,CLR,OVC,0.00,WeatherDisplay:10.37,2013-06-20 23:37:00,
2013-06-20 19:42:00,74.0,66.3,29.45,ENE,67,0.0,0.0,77,0.00,CLR,OVC,0.00,WeatherDisplay:10.37,2013-06-20 23:42:00,
2013-06-20 19:47:00,73.0,65.4,29.45,ENE,67,0.0,0.0,77,0.00,CLR,OVC,0.00,WeatherDisplay:10.37,2013-06-20 23:47:00,
2013-06-20 19:52:00,73.0,65.4,29.45,ENE,67,0.0,0.0,77,0.00,CLR,OVC,0.00,WeatherDisplay:10.37,2013-06-20 23:52:00,
2013-06-20 19:57:00,73.0,65.7,29.45,ENE,67,0.0,0.0,78,0.00,CLR,OVC,0.00,WeatherDisplay:10.37,2013-06-20 23:57:00,
2013-06-20 20:02:00,72.0,65.1,29.46,ENE,67,0.0,0.0,79,0.00,CLR,OVC,0.00,WeatherDisplay:10.37,2013-06-21 00:02:00,
2013-06-20 20:07:00,72.0,65.8,29.46,ENE,67,0.0,0.0,81,0.00,CLR,OVC,0.00,WeatherDisplay:10.37,2013-06-21 00:07:00,
2013-06-20 20:12:00,72.0,66.9,29.46,ENE,67,0.0,0.0,84,0.00,CLR,OVC,0.00,WeatherDisplay:10.37,2013-06-21 00:12:00,
2013-06-20 20:17:00,71.0,66.3,29.46,ENE,67,0.0,0.0,85,0.00,CLR,OVC,0.00,WeatherDisplay:10.37,2013-06-21 00:17:00,
2013-06-20 20:22:00,71.0,66.3,29.47,ENE,67,0.0,0.0,85,0.00,CLR,OVC,0.00,WeatherDisplay:10.37,2013-06-21 00:22:00,
2013-06-20 20:27:00,70.0,66.0,29.47,ENE,67,0.0,0.0,87,0.00,CLR,OVC,0.00,WeatherDisplay:10.37,2013-06-21 00:27:00,
2013-06-20 20:32:00,70.0,66.3,29.47,ENE,67,0.0,0.0,88,0.00,CLR,OVC,0.00,WeatherDisplay:10.37,2013-06-21 00:32:00,
2013-06-20 20:37:00,69.0,65.9,29.47,ENE,67,0.0,0.0,90,0.00,CLR,OVC,0.00,WeatherDisplay:10.37,2013-06-21 00:37:00,
2013-06-20 20:42:00,69.0,65.6,29.47,ENE,67,0.0,0.0,89,0.00,CLR,OVC,0.00,WeatherDisplay:10.37,2013-06-21 00:42:00,
2013-06-20 20:47:00,68.0,65.6,29.47,ENE,67,0.0,0.0,92,0.00,CLR,OVC,0.00,WeatherDisplay:10.37,2013-06-21 00:47:00,
2013-06-20 20:52:00,68.0,65.9,29.47,ENE,67,0.0,0.0,93,0.00,CLR,OVC,0.00,WeatherDisplay:10.37,2013-06-21 00:52:00,
2013-06-20 20:57:00,68.0,66.5,29.47,ENE,67,0.0,0.0,95,0.00,CLR,OVC,0.00,WeatherDisplay:10.37,2013-06-21 00:57:00,
2013-06-20 21:02:00,67.0,65.8,29.47,ENE,67,0.0,0.0,96,0.00,CLR,OVC,0.00,WeatherDisplay:10.37,2013-06-21 01:02:00,
2013-06-20 21:07:00,67.0,66.4,29.47,ENE,67,0.0,0.0,98,0.00,CLR,OVC,0.00,WeatherDisplay:10.37,2013-06-21 01:07:00,
2013-06-20 21:12:00,67.0,66.4,29.47,ENE,67,0.0,0.0,98,0.00,CLR,OVC,0.00,WeatherDisplay:10.37,2013-06-21 01:12:00,
2013-06-20 21:17:00,66.0,66.0,29.47,ENE,67,0.0,0.0,100,0.00,CLR,OVC,0.00,WeatherDisplay:10.37,2013-06-21 01:17:00,
2013-06-20 21:22:00,66.0,66.0,29.48,ENE,67,0.0,0.0,100,0.00,CLR,OVC,0.00,WeatherDisplay:10.37,2013-06-21 01:22:00,
2013-06-20 21:27:00,66.0,66.0,29.48,ENE,67,0.0,0.0,100,0.00,CLR,OVC,0.00,WeatherDisplay:10.37,2013-06-21 01:27:00,
2013-06-20 21:32:00,66.0,66.0,29.48,ENE,67,0.0,0.0,100,0.00,CLR,OVC,0.00,WeatherDisplay:10.37,2013-06-21 01:32:00,
2013-06-20 21:37:00,65.0,64.4,29.48,ENE,67,0.0,0.0,98,0.00,CLR,OVC,0.00,WeatherDisplay:10.37,2013-06-21 01:37:00,
2013-06-20 21:42:00,66.0,64.8,29.48,ENE,67,0.0,0.0,96,0.00,CLR,OVC,0.00,WeatherDisplay:10.37,2013-06-21 01:42:00,
2013-06-20 21:47:00,65.0,63.8,29.48,ENE,67,0.0,0.0,96,0.00,CLR,OVC,0.00,WeatherDisplay:10.37,2013-06-21 01:47:00,
2013-06-20 21:52:00,65.0,64.4,29.49,ENE,67,0.0,0.0,98,0.00,CLR,OVC,0.00,WeatherDisplay:10.37,2013-06-21 01:52:00,
2013-06-20 21:57:00,65.0,64.4,29.49,ENE,67,0.0,0.0,98,0.00,CLR,OVC,0.00,WeatherDisplay:10.37,2013-06-21 01:57:00,
2013-06-20 22:02:00,65.0,64.4,29.49,ENE,67,0.0,0.0,98,0.00,CLR,OVC,0.00,WeatherDisplay:10.37,2013-06-21 02:02:00,
2013-06-20 22:07:00,65.0,63.2,29.49,ENE,67,0.0,0.0,94,0.00,CLR,OVC,0.00,WeatherDisplay:10.37,2013-06-21 02:07:00,
2013-06-20 22:12:00,65.0,63.2,29.50,ENE,67,0.0,0.0,94,0.00,CLR,OVC,0.00,WeatherDisplay:10.37,2013-06-21 02:12:00,
2013-06-20 22:17:00,65.0,64.4,29.50,ENE,67,0.0,0.0,98,0.00,CLR,OVC,0.00,WeatherDisplay:10.37,2013-06-21 02:17:00,
2013-06-20 22:22:00,65.0,64.4,29.50,ENE,67,0.0,0.0,98,0.00,CLR,OVC,0.00,WeatherDisplay:10.37,2013-06-21 02:22:00,
2013-06-20 22:27:00,64.0,63.4,29.50,ENE,67,0.0,0.0,98,0.00,CLR,OVC,0.00,WeatherDisplay:10.37,2013-06-21 02:27:00,
2013-06-20 22:32:00,64.0,62.5,29.50,ENE,67,0.0,0.0,95,0.00,CLR,OVC,0.00,WeatherDisplay:10.37,2013-06-21 02:32:00,
2013-06-20 22:37:00,64.0,61.0,29.50,ENE,67,0.0,0.0,90,0.00,CLR,OVC,0.00,WeatherDisplay:10.37,2013-06-21 02:37:00,
2013-06-20 22:42:00,64.0,62.5,29.50,ENE,67,0.0,0.0,95,0.00,CLR,OVC,0.00,WeatherDisplay:10.37,2013-06-21 02:42:00,
2013-06-20 22:47:00,64.0,64.0,29.50,North,360,0.0,0.0,100,0.00,CLR,OVC,0.00,WeatherDisplay:10.37,2013-06-21 02:47:00,
2013-06-20 22:52:00,64.0,64.0,29.50,North,360,0.0,0.0,100,0.00,CLR,OVC,0.00,WeatherDisplay:10.37,2013-06-21 02:52:00,
2013-06-20 22:57:00,64.0,64.0,29.50,North,360,0.0,0.0,100,0.00,CLR,OVC,0.00,WeatherDisplay:10.37,2013-06-21 02:57:00,
2013-06-20 23:02:00,64.0,63.7,29.50,North,360,0.0,0.0,99,0.00,CLR,OVC,0.00,WeatherDisplay:10.37,2013-06-21 03:02:00,
2013-06-20 23:08:00,64.0,63.4,29.50,North,360,0.0,0.0,98,0.00,CLR,OVC,0.00,WeatherDisplay:10.37,2013-06-21 03:08:00,
2013-06-20 23:13:00,64.0,62.5,29.50,North,360,0.0,0.0,95,0.00,CLR,OVC,0.00,WeatherDisplay:10.37,2013-06-21 03:13:00,
2013-06-20 23:18:00,64.0,62.5,29.50,North,360,0.0,0.0,95,0.00,CLR,OVC,0.00,WeatherDisplay:10.37,2013-06-21 03:18:00,
2013-06-20 23:23:00,64.0,62.5,29.50,North,360,0.0,0.0,95,0.00,CLR,OVC,0.00,WeatherDisplay:10.37,2013-06-21 03:23:00,
2013-06-20 23:28:00,64.0,62.8,29.50,North,360,0.0,0.0,96,0.00,CLR,OVC,0.00,WeatherDisplay:10.37,2013-06-21 03:28:00,
2013-06-20 23:33:00,63.0,62.1,29.50,NE,45,0.0,0.0,97,0.00,CLR,OVC,0.00,WeatherDisplay:10.37,2013-06-21 03:33:00,
2013-06-20 23:38:00,63.0,62.1,29.50,NE,45,0.0,0.0,97,0.00,CLR,OVC,0.00,WeatherDisplay:10.37,2013-06-21 03:38:00,
2013-06-20 23:43:00,63.0,61.2,29.51,NE,45,0.0,0.0,94,0.00,CLR,OVC,0.00,WeatherDisplay:10.37,2013-06-21 03:43:00,
2013-06-20 23:48:00,63.0,60.6,29.51,ENE,67,0.0,0.0,92,0.00,CLR,OVC,0.00,WeatherDisplay:10.37,2013-06-21 03:48:00,
2013-06-20 23:53:00,63.0,59.4,29.51,ENE,67,0.0,0.0,88,0.00,CLR,OVC,0.00,WeatherDisplay:10.37,2013-06-21 03:53:00,
2013-06-20 23:58:00,63.0,56.7,29.51,ESE,112,2.3,2.3,80,0.00,CLR,OVC,0.00,WeatherDisplay:10.37,2013-06-21 03:58:00,